GCRR/ACE METAR and TAF weather

Enter ICAO airport designator
Station Type Date Time Source
GCRR METAR 2019/10/21 05:30 UTC NOAA

GCRR 210530Z 36006KT 9999 FEW025 19/13 Q1016


Station Type Date Time Source
GCRR Decoded METAR 2019/10/21 05:30 UTC NOAA

Lanzarote / Aeropuerto, Spain (GCRR) 28-57N 013-36W 21M
Oct 21, 2019 - 01:30 AM EDT / 2019.10.21 0530 UTC
Wind: from the N (360 degrees) at 7 MPH (6 KT):0
Visibility: greater than 7 mile(s):0
Sky conditions: mostly clear
Temperature: 66 F (19 C)
Dew Point: 55 F (13 C)
Relative Humidity: 68%
Pressure (altimeter): 30.00 in. Hg (1016 hPa)
ob: GCRR 210530Z 36006KT 9999 FEW025 19/13 Q1016
cycle: 5

Station Type Date Time Source
GCRR TAF 2019/10/21 03:27 UTC NOAA

TAF GCRR 210200Z 2103/2203 01011KT 9999 SCT045 TX26/2114Z TN20/2105Z

Example: see airport list